createdAt,value
2017-10-24T00:00:14.863Z,9.50
2017-10-24T00:02:42.550Z,9.60
2017-10-24T00:05:10.967Z,9.60
2017-10-24T00:07:38.676Z,9.60
2017-10-24T00:10:07.087Z,9.60
2017-10-24T00:12:34.776Z,9.60
2017-10-24T00:15:02.532Z,9.50
2017-10-24T00:17:30.247Z,9.20
2017-10-24T00:19:58.655Z,9.00
2017-10-24T00:22:26.339Z,8.90
2017-10-24T00:24:53.979Z,9.00
2017-10-24T00:27:21.680Z,9.20
2017-10-24T00:29:49.327Z,9.40
2017-10-24T00:32:17.023Z,9.50
2017-10-24T00:34:45.462Z,9.50
2017-10-24T00:37:13.207Z,9.50
2017-10-24T00:39:40.856Z,9.60
2017-10-24T00:42:08.577Z,9.60
2017-10-24T00:44:36.996Z,9.60
2017-10-24T00:47:04.703Z,9.60
2017-10-24T00:49:33.110Z,9.70
2017-10-24T00:52:00.803Z,9.60
2017-10-24T00:54:28.456Z,9.70
2017-10-24T00:56:56.222Z,9.70
2017-10-24T00:59:23.931Z,9.90
2017-10-24T01:01:52.391Z,9.70
2017-10-24T01:04:20.055Z,9.70
2017-10-24T01:06:48.540Z,9.80
2017-10-24T01:09:16.999Z,9.80
2017-10-24T01:11:44.712Z,9.80
2017-10-24T01:14:12.368Z,9.70
2017-10-24T01:16:40.106Z,9.70
2017-10-24T01:19:08.529Z,9.90
2017-10-24T01:21:36.287Z,9.90
2017-10-24T01:24:04.019Z,9.90
2017-10-24T01:26:31.827Z,10.10
2017-10-24T01:28:59.530Z,9.90
2017-10-24T01:31:28.037Z,9.80
2017-10-24T01:33:55.756Z,9.80
2017-10-24T01:36:24.326Z,9.60
2017-10-24T01:38:52.076Z,9.60
2017-10-24T01:41:19.837Z,9.60
2017-10-24T01:43:47.557Z,9.80
2017-10-24T01:46:15.313Z,10.00
2017-10-24T01:48:43.015Z,9.90
2017-10-24T01:51:10.751Z,9.80
2017-10-24T01:53:38.455Z,9.90
2017-10-24T01:56:06.211Z,9.90
2017-10-24T01:58:33.939Z,9.90
2017-10-24T02:01:01.689Z,9.80
2017-10-24T02:03:29.415Z,9.90
2017-10-24T02:05:57.941Z,10.00
2017-10-24T02:08:25.656Z,10.00
2017-10-24T02:10:53.387Z,9.90
2017-10-24T02:13:21.151Z,10.00
2017-10-24T02:15:48.871Z,9.90
2017-10-24T02:18:16.643Z,9.90
2017-10-24T02:20:44.351Z,10.00
2017-10-24T02:23:12.844Z,10.00
2017-10-24T02:25:40.519Z,10.00
2017-10-24T02:28:08.298Z,10.10
2017-10-24T02:30:36.015Z,10.10
2017-10-24T02:33:04.522Z,10.10
2017-10-24T02:35:32.205Z,10.10
2017-10-24T02:37:59.923Z,10.10
2017-10-24T02:40:28.364Z,10.20
2017-10-24T02:42:56.100Z,10.20
2017-10-24T02:45:23.773Z,10.20
2017-10-24T02:47:51.504Z,10.20
2017-10-24T02:50:19.220Z,10.20
2017-10-24T02:52:46.931Z,10.20
2017-10-24T02:55:14.638Z,10.10
2017-10-24T02:57:42.365Z,10.20
2017-10-24T03:00:10.088Z,10.20
2017-10-24T03:02:37.789Z,10.10
2017-10-24T03:05:05.467Z,10.00
2017-10-24T03:07:33.199Z,10.00
2017-10-24T03:10:00.924Z,10.00
2017-10-24T03:12:29.382Z,9.90
2017-10-24T03:14:57.049Z,9.90
2017-10-24T03:17:25.594Z,10.00
2017-10-24T03:19:53.324Z,10.00
2017-10-24T03:22:21.068Z,10.00
2017-10-24T03:24:49.532Z,10.00
2017-10-24T03:27:18.007Z,10.00
2017-10-24T03:29:46.448Z,10.00
2017-10-24T03:32:14.160Z,10.00
2017-10-24T03:34:42.589Z,10.00
2017-10-24T03:37:10.295Z,10.00
2017-10-24T03:39:38.714Z,10.00
2017-10-24T03:42:06.420Z,10.00
2017-10-24T03:44:34.848Z,10.30
2017-10-24T03:47:02.551Z,10.30
2017-10-24T03:49:30.994Z,10.30
2017-10-24T03:51:58.703Z,10.30
2017-10-24T03:54:27.160Z,10.30
2017-10-24T03:56:54.895Z,10.30
2017-10-24T03:59:22.556Z,10.50
2017-10-24T04:01:50.259Z,10.50
2017-10-24T04:04:18.715Z,10.50
2017-10-24T04:06:46.445Z,10.40
2017-10-24T04:09:14.129Z,10.40
2017-10-24T04:11:41.841Z,10.50
2017-10-24T04:14:09.564Z,10.50
2017-10-24T04:16:37.288Z,10.40
2017-10-24T04:19:04.947Z,10.30
2017-10-24T04:21:32.693Z,10.30
2017-10-24T04:24:00.395Z,10.40
2017-10-24T04:26:28.090Z,10.40
2017-10-24T04:28:56.560Z,10.40
2017-10-24T04:31:25.027Z,10.40
2017-10-24T04:33:53.558Z,10.50
2017-10-24T04:36:22.788Z,10.50
2017-10-24T04:38:51.299Z,10.50
2017-10-24T04:41:19.725Z,10.50
2017-10-24T04:43:47.436Z,10.50
2017-10-24T04:46:15.872Z,10.60
2017-10-24T04:48:43.588Z,10.60
2017-10-24T04:51:11.256Z,10.60
2017-10-24T04:53:38.960Z,10.60
2017-10-24T04:56:06.620Z,10.60
2017-10-24T04:58:34.319Z,10.60
2017-10-24T05:01:01.994Z,10.60
2017-10-24T05:03:29.700Z,10.60
2017-10-24T05:05:57.367Z,10.70
2017-10-24T05:08:25.072Z,10.70
2017-10-24T05:10:52.727Z,10.70
2017-10-24T05:13:20.432Z,10.70
2017-10-24T05:15:48.094Z,10.70
2017-10-24T05:18:15.819Z,10.70
2017-10-24T05:20:43.478Z,10.80
2017-10-24T05:23:11.183Z,10.70
2017-10-24T05:25:38.854Z,10.60
2017-10-24T05:28:07.323Z,10.60
2017-10-24T05:30:34.991Z,10.60
2017-10-24T05:33:03.606Z,10.60
2017-10-24T05:35:31.267Z,10.50
2017-10-24T05:37:58.969Z,10.60
2017-10-24T05:40:26.635Z,10.60
2017-10-24T05:42:54.339Z,10.50
2017-10-24T05:45:22.039Z,10.60
2017-10-24T05:47:49.759Z,10.70
2017-10-24T05:50:17.432Z,10.90
2017-10-24T05:52:45.115Z,10.90
2017-10-24T05:55:12.865Z,10.70
2017-10-24T05:57:40.523Z,10.70
2017-10-24T06:00:08.247Z,10.70
2017-10-24T06:02:36.672Z,11.00
2017-10-24T06:05:04.381Z,11.00
2017-10-24T06:07:32.814Z,11.10
2017-10-24T06:10:00.521Z,11.10
2017-10-24T06:12:28.947Z,11.30
2017-10-24T06:14:56.657Z,11.20
2017-10-24T06:17:25.124Z,11.20
2017-10-24T06:19:53.644Z,11.30
2017-10-24T06:22:21.306Z,11.30
2017-10-24T06:24:49.012Z,11.30
2017-10-24T06:27:16.671Z,11.20
2017-10-24T06:29:44.379Z,11.20
2017-10-24T06:32:12.052Z,11.20
2017-10-24T06:34:39.755Z,11.30
2017-10-24T06:37:07.419Z,11.30
2017-10-24T06:39:35.944Z,11.30
2017-10-24T06:42:03.610Z,11.20
2017-10-24T06:44:31.381Z,11.30
2017-10-24T06:46:59.047Z,11.30
2017-10-24T06:49:26.705Z,11.20
2017-10-24T06:51:54.428Z,11.20
2017-10-24T06:54:22.091Z,11.20
2017-10-24T06:56:49.796Z,11.20
2017-10-24T06:59:17.518Z,11.40
2017-10-24T07:01:45.226Z,11.40
2017-10-24T07:04:12.928Z,11.50
2017-10-24T07:06:40.635Z,11.50
2017-10-24T07:09:08.302Z,11.50
2017-10-24T07:11:36.044Z,11.40
2017-10-24T07:14:03.760Z,11.40
2017-10-24T07:16:32.228Z,11.50
2017-10-24T07:19:00.663Z,11.40
2017-10-24T07:21:28.363Z,11.40
2017-10-24T07:23:56.794Z,11.60
2017-10-24T07:26:24.675Z,11.50
2017-10-24T07:28:52.343Z,11.50
2017-10-24T07:31:20.045Z,11.50
2017-10-24T07:33:47.711Z,11.50
2017-10-24T07:36:15.442Z,11.70
2017-10-24T07:38:43.872Z,11.70
2017-10-24T07:41:11.585Z,11.70
2017-10-24T07:43:40.026Z,11.60
2017-10-24T07:46:07.797Z,11.60
2017-10-24T07:48:35.467Z,11.60
2017-10-24T07:51:03.134Z,11.60
2017-10-24T07:53:31.610Z,11.70
2017-10-24T07:56:00.045Z,11.70
2017-10-24T07:58:27.747Z,11.70
2017-10-24T08:00:55.399Z,11.80
2017-10-24T08:03:23.096Z,11.80
2017-10-24T08:05:50.761Z,11.80
2017-10-24T08:08:18.483Z,11.90
2017-10-24T08:10:46.221Z,11.90
2017-10-24T08:13:14.096Z,11.90
2017-10-24T08:15:41.750Z,11.90
2017-10-24T08:18:09.463Z,11.90
2017-10-24T08:20:37.131Z,11.90
2017-10-24T08:23:04.834Z,12.00
2017-10-24T08:25:32.490Z,11.90
2017-10-24T08:28:00.191Z,12.00
2017-10-24T08:30:27.852Z,12.00
2017-10-24T08:32:55.546Z,12.10
2017-10-24T08:35:23.317Z,12.00
2017-10-24T08:37:51.020Z,12.00
2017-10-24T08:40:19.444Z,12.00
2017-10-24T08:42:47.140Z,12.00
2017-10-24T08:45:14.795Z,12.00
2017-10-24T08:47:42.536Z,12.10
2017-10-24T08:50:10.235Z,12.10
2017-10-24T08:52:38.775Z,12.20
2017-10-24T08:55:06.528Z,12.20
2017-10-24T08:57:34.243Z,12.20
2017-10-24T09:00:02.740Z,12.30
2017-10-24T09:02:30.419Z,12.30
2017-10-24T09:04:58.176Z,12.30
2017-10-24T09:07:28.575Z,12.30
2017-10-24T09:09:56.283Z,12.30
2017-10-24T09:12:23.940Z,12.40
2017-10-24T09:14:51.639Z,12.50
2017-10-24T09:17:31.892Z,12.60
2017-10-24T09:20:01.271Z,12.60
2017-10-24T09:22:28.942Z,12.60
2017-10-24T09:24:56.644Z,12.60
2017-10-24T09:27:24.318Z,12.60
2017-10-24T09:29:52.007Z,12.70
2017-10-24T09:32:19.720Z,12.70
2017-10-24T09:34:47.471Z,12.80
2017-10-24T09:37:15.168Z,12.80
2017-10-24T09:39:42.930Z,12.80
2017-10-24T09:42:10.654Z,12.80
2017-10-24T09:44:38.378Z,12.70
2017-10-24T09:47:06.053Z,12.80
2017-10-24T09:49:34.532Z,12.80
2017-10-24T09:52:03.004Z,12.80
2017-10-24T09:54:42.275Z,12.80
2017-10-24T09:57:09.932Z,12.80
2017-10-24T09:59:37.720Z,12.80
2017-10-24T10:02:05.439Z,12.80
2017-10-24T10:04:33.184Z,12.80
2017-10-24T10:07:01.671Z,12.80
2017-10-24T10:09:30.205Z,12.80
2017-10-24T10:11:57.911Z,12.80
2017-10-24T10:14:26.459Z,12.90
2017-10-24T10:16:54.123Z,12.90
2017-10-24T10:19:21.846Z,13.00
2017-10-24T10:21:51.361Z,13.10
2017-10-24T10:24:22.878Z,13.10
2017-10-24T10:26:50.575Z,13.10
2017-10-24T10:29:18.312Z,13.20
2017-10-24T10:31:46.003Z,13.20
2017-10-24T10:34:13.767Z,13.30
2017-10-24T10:36:41.444Z,13.20
2017-10-24T10:39:09.199Z,13.30
2017-10-24T10:41:36.879Z,13.20
2017-10-24T10:44:05.379Z,13.30
2017-10-24T10:46:33.055Z,13.30
2017-10-24T10:49:00.759Z,13.40
2017-10-24T10:51:28.531Z,13.40
2017-10-24T10:53:57.080Z,13.50
2017-10-24T10:56:24.742Z,13.50
2017-10-24T10:58:52.444Z,13.60
2017-10-24T11:01:20.923Z,13.50
2017-10-24T11:03:49.438Z,13.60
2017-10-24T11:06:17.107Z,13.60
2017-10-24T11:08:44.851Z,13.70
2017-10-24T11:11:12.514Z,13.70
2017-10-24T11:13:40.227Z,13.70
2017-10-24T11:16:08.664Z,13.80
2017-10-24T11:18:36.437Z,13.70
2017-10-24T11:21:04.104Z,13.80
2017-10-24T11:23:31.824Z,13.90
2017-10-24T11:25:59.492Z,13.90
2017-10-24T11:28:27.197Z,13.90
2017-10-24T11:30:54.847Z,13.90
2017-10-24T11:33:22.539Z,13.80
2017-10-24T11:35:50.959Z,13.70
2017-10-24T11:38:18.824Z,13.70
2017-10-24T11:40:46.538Z,13.70
2017-10-24T11:43:14.986Z,13.70
2017-10-24T11:45:42.750Z,13.60
2017-10-24T11:48:10.403Z,13.70
2017-10-24T11:50:38.095Z,13.70
2017-10-24T11:53:06.520Z,13.80
2017-10-24T11:55:34.244Z,13.70
2017-10-24T11:58:01.914Z,13.80
2017-10-24T12:00:29.635Z,13.70
2017-10-24T12:02:57.374Z,13.70
2017-10-24T12:05:25.094Z,13.70
2017-10-24T12:07:52.797Z,13.70
2017-10-24T12:10:20.571Z,13.80
2017-10-24T12:12:48.398Z,13.80
2017-10-24T12:15:16.115Z,13.80
2017-10-24T12:17:43.812Z,13.80
2017-10-24T12:20:11.517Z,13.80
2017-10-24T12:22:39.176Z,13.90
2017-10-24T12:25:06.959Z,13.90
2017-10-24T12:27:35.419Z,13.90
2017-10-24T12:30:03.148Z,13.90
2017-10-24T12:32:30.814Z,14.00
2017-10-24T12:34:58.556Z,14.00
2017-10-24T12:37:26.261Z,13.90
2017-10-24T12:39:53.987Z,14.00
2017-10-24T12:42:27.276Z,14.00
2017-10-24T12:45:03.587Z,14.00
2017-10-24T12:47:32.056Z,14.00
2017-10-24T12:50:05.467Z,14.00
2017-10-24T12:52:33.927Z,14.00
2017-10-24T12:55:01.665Z,14.00
2017-10-24T12:57:39.261Z,14.00
2017-10-24T13:00:07.635Z,14.10
2017-10-24T13:02:35.339Z,14.20
2017-10-24T13:05:03.870Z,14.20
2017-10-24T13:07:32.332Z,14.20
2017-10-24T13:10:00.076Z,14.20
2017-10-24T13:12:27.776Z,14.20
2017-10-24T13:14:55.520Z,14.20
2017-10-24T13:17:23.223Z,14.30
2017-10-24T13:19:50.928Z,14.30
2017-10-24T13:22:18.583Z,14.30
2017-10-24T13:24:46.313Z,14.30
2017-10-24T13:27:14.736Z,14.40
2017-10-24T13:29:42.388Z,14.40
2017-10-24T13:32:10.125Z,14.40
2017-10-24T13:34:37.808Z,14.40
2017-10-24T13:37:05.515Z,14.40
2017-10-24T13:39:33.167Z,14.20
2017-10-24T13:42:00.871Z,14.30
2017-10-24T13:44:28.540Z,14.40
2017-10-24T13:46:56.260Z,14.30
2017-10-24T13:49:24.692Z,14.30
2017-10-24T13:51:52.404Z,14.30
2017-10-24T13:54:20.883Z,14.40
2017-10-24T13:56:49.355Z,14.50
2017-10-24T13:59:17.018Z,14.40
2017-10-24T14:01:45.523Z,14.60
2017-10-24T14:04:18.827Z,14.50
2017-10-24T14:06:52.264Z,14.60
2017-10-24T14:09:25.677Z,14.60
2017-10-24T14:11:54.150Z,14.70
2017-10-24T14:14:21.807Z,14.70
2017-10-24T14:16:49.512Z,14.70
2017-10-24T14:19:17.178Z,14.70
2017-10-24T14:21:44.884Z,14.80
2017-10-24T14:24:12.543Z,14.80
2017-10-24T14:26:40.256Z,14.80
2017-10-24T14:29:07.918Z,14.90
2017-10-24T14:31:35.621Z,14.90
2017-10-24T14:34:03.324Z,14.90
2017-10-24T14:36:30.996Z,14.90
2017-10-24T14:38:58.711Z,14.80
2017-10-24T14:41:27.140Z,14.90
2017-10-24T14:43:54.839Z,14.90
2017-10-24T14:46:22.507Z,14.80
2017-10-24T14:48:50.204Z,14.80
2017-10-24T14:51:17.863Z,14.80
2017-10-24T14:53:45.564Z,14.90
2017-10-24T14:56:13.244Z,14.90
2017-10-24T14:58:40.947Z,14.90
2017-10-24T15:01:08.624Z,14.90
2017-10-24T15:03:36.332Z,14.90
2017-10-24T15:06:04.765Z,14.80
2017-10-24T15:08:32.471Z,14.80
2017-10-24T15:11:01.011Z,14.80
2017-10-24T15:13:29.285Z,14.80
2017-10-24T15:15:57.045Z,14.90
2017-10-24T15:18:25.507Z,14.90
2017-10-24T15:20:53.163Z,14.80
2017-10-24T15:23:20.861Z,14.80
2017-10-24T15:25:48.523Z,14.80
2017-10-24T15:28:16.265Z,14.80
2017-10-24T15:30:44.029Z,14.60
2017-10-24T15:33:11.691Z,14.50
2017-10-24T15:35:39.398Z,14.60
2017-10-24T15:38:07.929Z,14.60
2017-10-24T15:40:35.686Z,14.60
2017-10-24T15:43:03.369Z,14.60
2017-10-24T15:45:31.072Z,14.60
2017-10-24T15:47:58.747Z,14.60
2017-10-24T15:50:26.458Z,14.60
2017-10-24T15:52:54.886Z,14.50
2017-10-24T15:55:22.587Z,14.50
2017-10-24T15:57:50.240Z,14.50
2017-10-24T16:00:17.984Z,14.60
2017-10-24T16:02:45.676Z,14.40
2017-10-24T16:05:13.383Z,14.50
2017-10-24T16:07:41.047Z,14.40
2017-10-24T16:10:08.744Z,14.40
2017-10-24T16:12:36.410Z,14.40
2017-10-24T16:15:04.195Z,14.50
2017-10-24T16:17:31.960Z,14.40
2017-10-24T16:19:59.908Z,14.40
2017-10-24T16:22:28.334Z,14.40
2017-10-24T16:24:56.050Z,14.40
2017-10-24T16:27:24.487Z,14.30
2017-10-24T16:29:52.187Z,14.30
2017-10-24T16:32:20.631Z,14.30
2017-10-24T16:34:48.361Z,14.30
2017-10-24T16:37:16.039Z,14.30
2017-10-24T16:39:43.764Z,14.30
2017-10-24T16:42:11.448Z,14.30
2017-10-24T16:44:40.177Z,14.30
2017-10-24T16:47:07.853Z,14.30
2017-10-24T16:49:36.311Z,14.20
2017-10-24T16:52:04.063Z,14.20
2017-10-24T16:54:31.810Z,14.10
2017-10-24T16:56:59.508Z,14.20
2017-10-24T16:59:27.944Z,14.20
2017-10-24T17:01:55.677Z,14.20
2017-10-24T17:04:23.347Z,14.20
2017-10-24T17:06:51.052Z,14.20
2017-10-24T17:09:18.757Z,14.20
2017-10-24T17:11:46.455Z,14.30
2017-10-24T17:14:14.695Z,14.10
2017-10-24T17:16:42.485Z,14.10
2017-10-24T17:19:10.160Z,14.10
2017-10-24T17:21:37.852Z,14.20
2017-10-24T17:24:05.507Z,14.20
2017-10-24T17:26:33.970Z,14.20
2017-10-24T17:29:01.623Z,14.10
2017-10-24T17:31:29.323Z,14.20
2017-10-24T17:33:56.983Z,14.30
2017-10-24T17:36:24.690Z,14.20
2017-10-24T17:38:52.508Z,14.20
2017-10-24T17:41:20.208Z,14.10
2017-10-24T17:43:47.919Z,14.10
2017-10-24T17:46:15.654Z,14.10
2017-10-24T17:48:44.091Z,14.00
2017-10-24T17:51:11.814Z,14.00
2017-10-24T17:53:39.467Z,13.90
2017-10-24T17:56:07.944Z,13.80
2017-10-24T17:58:36.364Z,13.80
2017-10-24T18:01:04.078Z,13.80
2017-10-24T18:03:31.759Z,13.90
2017-10-24T18:06:00.059Z,13.80
2017-10-24T18:08:27.804Z,13.70
2017-10-24T18:10:55.516Z,13.70
2017-10-24T18:13:23.174Z,13.60
2017-10-24T18:15:50.940Z,13.70
2017-10-24T18:18:19.382Z,13.70
2017-10-24T18:20:47.098Z,13.60
2017-10-24T18:23:15.524Z,13.70
2017-10-24T18:25:43.256Z,13.60
2017-10-24T18:28:10.924Z,13.70
2017-10-24T18:30:38.646Z,13.60
2017-10-24T18:33:07.072Z,13.70
2017-10-24T18:35:34.775Z,13.70
2017-10-24T18:38:02.443Z,13.50
2017-10-24T18:40:30.919Z,13.50
2017-10-24T18:42:59.343Z,13.50
2017-10-24T18:45:27.035Z,13.50
2017-10-24T18:47:54.736Z,13.50
2017-10-24T18:50:22.440Z,13.60
2017-10-24T18:52:50.141Z,13.60
2017-10-24T18:55:18.657Z,13.40
2017-10-24T18:57:46.359Z,13.40
2017-10-24T19:00:14.138Z,13.50
2017-10-24T19:02:42.602Z,13.50
2017-10-24T19:05:10.348Z,13.50
2017-10-24T19:07:38.098Z,13.50
2017-10-24T19:10:05.822Z,13.60
2017-10-24T19:12:33.558Z,13.50
2017-10-24T19:15:02.037Z,13.60
2017-10-24T19:17:30.524Z,13.70
2017-10-24T19:19:58.954Z,13.80
2017-10-24T19:22:26.668Z,13.80
2017-10-24T19:24:55.199Z,13.70
2017-10-24T19:27:22.914Z,13.70
2017-10-24T19:29:50.610Z,13.60
2017-10-24T19:32:18.346Z,13.60
2017-10-24T19:34:46.055Z,13.60
2017-10-24T19:37:13.803Z,13.70
2017-10-24T19:39:41.492Z,13.70
2017-10-24T19:42:10.041Z,13.70
2017-10-24T19:44:37.748Z,13.70
2017-10-24T19:47:06.257Z,13.80
2017-10-24T19:49:33.919Z,13.80
2017-10-24T19:52:01.653Z,13.70
2017-10-24T19:54:29.372Z,13.70
2017-10-24T19:56:57.092Z,13.80
2017-10-24T19:59:24.766Z,13.60
2017-10-24T20:01:52.523Z,13.50
2017-10-24T20:04:20.238Z,13.70
2017-10-24T20:06:48.818Z,13.60
2017-10-24T20:09:17.347Z,13.70
2017-10-24T20:11:45.087Z,13.70
2017-10-24T20:14:12.799Z,13.70
2017-10-24T20:16:40.555Z,13.70
2017-10-24T20:19:08.228Z,13.60
2017-10-24T20:21:35.952Z,13.60
2017-10-24T20:24:03.751Z,13.70
2017-10-24T20:26:31.498Z,13.70
2017-10-24T20:28:59.172Z,13.70
2017-10-24T20:31:26.902Z,13.50
2017-10-24T20:33:54.560Z,13.50
2017-10-24T20:36:22.271Z,13.60
2017-10-24T20:38:50.708Z,13.70
2017-10-24T20:41:18.437Z,13.70
2017-10-24T20:43:46.102Z,13.80
2017-10-24T20:46:13.804Z,13.70
2017-10-24T20:48:41.463Z,13.80
2017-10-24T20:51:09.166Z,13.70
2017-10-24T20:53:36.851Z,13.80
2017-10-24T20:56:04.560Z,13.80
2017-10-24T20:58:32.987Z,13.70
2017-10-24T21:01:00.729Z,13.70
2017-10-24T21:03:28.408Z,13.60
2017-10-24T21:05:56.112Z,13.70
2017-10-24T21:08:23.792Z,13.70
2017-10-24T21:10:52.340Z,13.60
2017-10-24T21:13:20.037Z,13.60
2017-10-24T21:15:48.504Z,13.70
2017-10-24T21:18:16.926Z,13.80
2017-10-24T21:20:44.622Z,13.70
2017-10-24T21:23:12.328Z,13.70
2017-10-24T21:25:39.991Z,13.70
2017-10-24T21:28:07.699Z,13.80
2017-10-24T21:30:35.356Z,13.70
2017-10-24T21:33:03.064Z,13.80
2017-10-24T21:35:30.736Z,13.80
2017-10-24T21:37:58.435Z,13.90
2017-10-24T21:40:26.105Z,13.80
2017-10-24T21:42:53.807Z,13.60
2017-10-24T21:45:21.455Z,13.80
2017-10-24T21:47:49.187Z,13.90
2017-10-24T21:50:16.882Z,13.90
2017-10-24T21:52:44.603Z,13.90
2017-10-24T21:55:12.268Z,13.90
2017-10-24T21:57:39.975Z,13.90
2017-10-24T22:00:07.704Z,13.90
2017-10-24T22:02:36.170Z,13.90
2017-10-24T22:05:03.831Z,13.80
2017-10-24T22:07:32.321Z,13.80
2017-10-24T22:10:00.756Z,13.90
2017-10-24T22:12:28.475Z,13.90
2017-10-24T22:14:56.144Z,13.90
2017-10-24T22:17:23.887Z,13.80
2017-10-24T22:19:51.579Z,13.80
2017-10-24T22:22:19.292Z,13.90
2017-10-24T22:24:47.720Z,13.70
2017-10-24T22:27:15.420Z,13.70
2017-10-24T22:29:43.115Z,13.80
2017-10-24T22:32:10.883Z,13.90
2017-10-24T22:34:38.547Z,13.90
2017-10-24T22:37:06.458Z,13.90
2017-10-24T22:39:34.111Z,13.90
2017-10-24T22:42:01.816Z,14.00
2017-10-24T22:44:29.483Z,13.90
2017-10-24T22:46:57.187Z,13.90
2017-10-24T22:49:24.847Z,14.00
2017-10-24T22:51:52.560Z,13.90
2017-10-24T22:54:20.217Z,13.90
2017-10-24T22:56:47.934Z,13.90
2017-10-24T22:59:15.616Z,13.80
2017-10-24T23:01:44.087Z,13.90
2017-10-24T23:04:11.751Z,13.90
2017-10-24T23:06:40.175Z,13.90
2017-10-24T23:09:07.888Z,13.90
2017-10-24T23:11:36.317Z,13.90
2017-10-24T23:14:04.022Z,13.90
2017-10-24T23:16:32.447Z,14.00
2017-10-24T23:19:00.229Z,14.00
2017-10-24T23:21:28.680Z,13.90
2017-10-24T23:23:56.380Z,13.80
2017-10-24T23:26:24.044Z,13.70
2017-10-24T23:28:51.743Z,13.80
2017-10-24T23:31:19.427Z,13.90
2017-10-24T23:33:47.128Z,14.00
2017-10-24T23:36:14.792Z,14.00
2017-10-24T23:38:42.490Z,14.00
2017-10-24T23:41:10.151Z,14.00
2017-10-24T23:43:37.856Z,14.00
2017-10-24T23:46:05.525Z,14.00
2017-10-24T23:48:33.240Z,13.90
2017-10-24T23:51:00.903Z,13.80
2017-10-24T23:53:28.612Z,13.90
2017-10-24T23:55:56.276Z,13.90
2017-10-24T23:58:23.979Z,13.90
